John P. Tully — CG2958 — position and weather

sailwx.info

Track history (hours):
 
Tides and Currents Weather Stations Pressure Air Temp Water Temp Dewpoint Dewpoint Depression Visibility Wind Speed Wind Dir Waves Ship Positions

Oceanographic research ship John P. Tully (Canada)

Detailed information on ship capabilities available from University of Delaware's Ocean Information Center.

Last reported at 2019-Sep-17 02:46 UTC. Time now 2019-Sep-22 00:00 UTC.
Position N 48°20' W 126°17'.

Length 68.9 m; beam 14.5 m; draft 4.5 m.

Type: SAR. MMSI: 316114000.

Date/timePositionNaut miles runAvg speedWind from/ knotsBaromVisibWave heightAir tempDewpointWater temp
2019-Sep-17 02:46N 48°20' W 126°17'4 8.9
2019-Sep-17 02:18N 48°21' W 126°10'1 0.2
2019-Sep-16 21:55N 48°21' W 126°09'0 0.1
2019-Sep-16 21:16N 48°21' W 126°09'2 7.8
2019-Sep-16 20:59N 48°21' W 126°06'5 9.3
2019-Sep-16 20:26N 48°22' W 125°59'4 7.9
2019-Sep-16 19:55N 48°23' W 125°53'3 8.1
2019-Sep-16 19:30N 48°24' W 125°48'5 8.4
2019-Sep-16 18:52N 48°25' W 125°40'3 8.2
2019-Sep-16 18:30N 48°26' W 125°36'4 7.9
2019-Sep-16 18:00N 48°27' W 125°30'7 8.0
2019-Sep-16 17:11N 48°29' W 125°20'2 8.4
2019-Sep-16 17:00N 48°29' W 125°18'5 9.1
2019-Sep-16 16:26N 48°30' W 125°10'4 9.3
2019-Sep-16 16:00N 48°31' W 125°04'510.2
2019-Sep-16 15:30N 48°31' W 124°57'5 9.7
2019-Sep-16 15:00N 48°31' W 124°49'5 9.5
2019-Sep-16 14:30N 48°31' W 124°42'5 9.8
2019-Sep-16 14:00N 48°29' W 124°35'5 9.6
2019-Sep-16 13:30N 48°27' W 124°29'5 9.2
2019-Sep-16 13:00N 48°25' W 124°22'4 8.8
2019-Sep-16 12:30N 48°23' W 124°16'4 8.6
2019-Sep-16 12:00N 48°22' W 124°10'4 8.6
2019-Sep-16 11:30N 48°20' W 124°04'4 8.8
2019-Sep-16 10:59N 48°18' W 123°58'4 8.8
2019-Sep-16 10:30N 48°17' W 123°52'5 9.4
2019-Sep-16 09:58N 48°17' W 123°44'510.3
2019-Sep-16 09:30N 48°16' W 123°37'5 9.9
2019-Sep-16 09:00N 48°16' W 123°30'5 9.6
2019-Sep-16 08:30N 48°20' W 123°27'4 8.9
2019-Sep-16 08:00N 48°23' W 123°21'5 9.6
2019-Sep-16 07:30N 48°24' W 123°14'5 9.3
2019-Sep-16 07:00N 48°29' W 123°12'612.1
2019-Sep-16 06:30N 48°34' W 123°14'612.2
2019-Sep-16 06:00N 48°40' W 123°16'510.8
2019-Sep-16 05:30N 48°44' W 123°09'611.9
2019-Sep-16 05:00N 48°47' W 123°02'510.4
2019-Sep-16 04:30N 48°52' W 123°04'611.7
2019-Sep-16 04:01N 48°56' W 123°11'611.6
2019-Sep-16 03:30N 48°60' W 123°17'510.6
2019-Sep-16 03:00N 49°04' W 123°21'1 2.3
2019-Sep-16 02:30N 49°05' W 123°20'0 0.0
2019-Sep-16 02:00N 49°05' W 123°20'0 0.0
2019-Sep-16 01:30N 49°05' W 123°20'0 0.0
2019-Sep-16 01:00N 49°05' W 123°20'0 0.0
2019-Sep-16 00:30N 49°05' W 123°20'0 0.0
2019-Sep-16 00:01N 49°05' W 123°20'0 0.0
2019-Sep-15 23:30N 49°05' W 123°20'0 0.0
2019-Sep-15 23:00N 49°05' W 123°20'0 0.0
2019-Sep-15 22:29N 49°05' W 123°20'0 0.0
2019-Sep-15 22:00N 49°05' W 123°20'0 0.0
2019-Sep-15 21:30N 49°05' W 123°20'0 0.0
2019-Sep-15 21:00N 49°05' W 123°20'0 0.0
2019-Sep-15 20:30N 49°05' W 123°20'0 0.0
2019-Sep-15 20:00N 49°05' W 123°20'0 0.0
2019-Sep-15 19:30N 49°05' W 123°20'0 0.0
2019-Sep-15 19:00N 49°05' W 123°20'0 0.0
2019-Sep-15 18:30N 49°05' W 123°20'0 0.0
2019-Sep-15 18:00N 49°05' W 123°20'0 0.1
2019-Sep-15 17:30N 49°05' W 123°20'1 2.9
2019-Sep-15 17:00N 49°04' W 123°19'1 2.9
2019-Sep-15 16:31N 49°05' W 123°20'0 0.0
2019-Sep-15 16:00N 49°05' W 123°20'0 0.0
2019-Sep-15 15:30N 49°05' W 123°20'0 0.0
2019-Sep-15 15:00N 49°05' W 123°20'0 0.0
2019-Sep-15 14:30N 49°05' W 123°20'0 0.0
2019-Sep-15 14:00N 49°05' W 123°20'0 0.0
2019-Sep-15 13:30N 49°05' W 123°20'0 0.0
2019-Sep-15 13:00N 49°05' W 123°20'0 0.0
2019-Sep-15 12:30N 49°05' W 123°20'0 0.0
2019-Sep-15 12:00N 49°05' W 123°20'0 0.0
2019-Sep-15 11:30N 49°05' W 123°20'0 0.0
2019-Sep-15 11:00N 49°05' W 123°20'0 0.0
2019-Sep-15 10:30N 49°05' W 123°20'0 0.0
2019-Sep-15 10:00N 49°05' W 123°20'0 0.0
2019-Sep-15 09:30N 49°05' W 123°20'0 0.0
2019-Sep-15 09:00N 49°05' W 123°20'0 0.0
2019-Sep-15 08:30N 49°05' W 123°20'0 0.0
2019-Sep-15 08:01N 49°05' W 123°20'0 0.0
2019-Sep-15 07:30N 49°05' W 123°20'0 0.0
2019-Sep-15 07:00N 49°05' W 123°20'0 0.0
2019-Sep-15 06:30N 49°05' W 123°20'0 0.0
2019-Sep-15 06:00N 49°05' W 123°20'0 0.0
2019-Sep-15 05:30N 49°05' W 123°20'0 0.0
2019-Sep-15 05:00N 49°05' W 123°20'0 0.0
2019-Sep-15 04:30N 49°05' W 123°20'0 0.0
2019-Sep-15 04:00N 49°05' W 123°20'0 0.0
2019-Sep-15 03:30N 49°05' W 123°20'0 0.0
2019-Sep-15 03:00N 49°05' W 123°20'0 0.1
2019-Sep-15 02:30N 49°05' W 123°20'0 0.1
2019-Sep-15 02:00N 49°05' W 123°20'0 0.1
2019-Sep-15 01:30N 49°05' W 123°20'0 0.0
2019-Sep-15 01:00N 49°05' W 123°20'0 0.0
2019-Sep-15 00:30N 49°05' W 123°20'0 0.0
2019-Sep-15 00:00N 49°05' W 123°20'0 0.0
2019-Sep-14 23:30N 49°05' W 123°20'0 0.0
2019-Sep-14 23:00N 49°05' W 123°20'0 0.0
2019-Sep-14 22:31N 49°05' W 123°20'0 0.1
2019-Sep-14 22:00N 49°05' W 123°20'0 0.1
2019-Sep-14 21:30N 49°05' W 123°20'0 0.0
2019-Sep-14 21:00N 49°05' W 123°20'0 0.2
2019-Sep-14 20:30N 49°05' W 123°20'0 0.3
2019-Sep-14 20:00N 49°05' W 123°20'0 0.3
2019-Sep-14 19:30N 49°05' W 123°20'1 1.0
2019-Sep-14 19:00N 49°05' W 123°19'1 1.1
2019-Sep-14 18:30N 49°05' W 123°20'0 0.3
2019-Sep-14 18:00N 49°05' W 123°20'0 0.2
2019-Sep-14 17:30N 49°05' W 123°20'0 0.0
2019-Sep-14 17:01N 49°05' W 123°20'0 0.0
2019-Sep-14 16:30N 49°05' W 123°20'0 0.0
2019-Sep-14 16:00N 49°05' W 123°20'0 0.0
2019-Sep-14 15:30N 49°05' W 123°20'0 0.0
2019-Sep-14 15:01N 49°05' W 123°20'0 0.0
2019-Sep-14 14:31N 49°05' W 123°20'0 0.0
2019-Sep-14 14:01N 49°05' W 123°20'0 0.5
2019-Sep-14 13:30N 49°05' W 123°20'3 6.5
2019-Sep-14 13:00N 49°03' W 123°24'4 8.8
2019-Sep-14 12:30N 48°60' W 123°28'1 1.2
2019-Sep-14 12:00N 48°60' W 123°27'1 1.1
2019-Sep-14 11:30N 48°59' W 123°28'0 0.6
2019-Sep-14 11:00N 48°59' W 123°28'0 0.8
2019-Sep-14 10:30N 48°60' W 123°27'0 0.6
2019-Sep-14 10:00N 48°60' W 123°27'0 0.3
2019-Sep-14 09:30N 48°60' W 123°26'1 1.3
2019-Sep-14 09:00N 48°59' W 123°27'1 2.2
2019-Sep-14 08:30N 48°59' W 123°25'0 0.1
2019-Sep-14 08:00N 48°59' W 123°26'0 0.6
2019-Sep-14 07:30N 48°59' W 123°26'0 0.6
2019-Sep-14 07:00N 48°59' W 123°26'0 0.4
2019-Sep-14 06:30N 48°59' W 123°27'0 0.2
2019-Sep-14 06:00N 48°59' W 123°27'0 0.4
2019-Sep-14 05:30N 48°59' W 123°27'0 0.0
2019-Sep-14 05:00N 48°59' W 123°27'0 0.8
2019-Sep-14 04:30N 48°59' W 123°27'2 3.0
2019-Sep-14 04:00N 49°01' W 123°28'0 0.2
2019-Sep-14 03:30N 49°01' W 123°28'0 0.1
2019-Sep-14 03:00N 49°01' W 123°28'3 6.8
2019-Sep-14 02:30N 49°04' W 123°25'4 7.6
2019-Sep-14 02:01N 49°05' W 123°20'0 0.0
2019-Sep-14 01:30N 49°05' W 123°20'0 0.0
2019-Sep-14 01:00N 49°05' W 123°20'0 0.0
2019-Sep-14 00:30N 49°05' W 123°20'0 0.0
2019-Sep-14 00:00N 49°05' W 123°20'0 0.0
2019-Sep-13 23:30N 49°05' W 123°20'0 0.0
2019-Sep-13 23:00N 49°05' W 123°20'0 0.0
2019-Sep-13 22:30N 49°05' W 123°20'0 0.0
2019-Sep-13 22:00N 49°05' W 123°20'0 0.0
2019-Sep-13 21:31N 49°05' W 123°20'0 0.0
2019-Sep-13 21:00N 49°05' W 123°20'0 0.0
2019-Sep-13 20:30N 49°05' W 123°20'0 0.1
2019-Sep-13 20:00N 49°05' W 123°20'0 0.8
2019-Sep-13 19:30N 49°05' W 123°20'0 0.1
2019-Sep-13 19:00N 49°05' W 123°20'0 0.0
2019-Sep-13 18:30N 49°05' W 123°20'0 0.0
2019-Sep-13 18:00N 49°05' W 123°20'0 0.0
2019-Sep-13 17:30N 49°05' W 123°20'0 0.0
2019-Sep-13 17:00N 49°05' W 123°20'0 0.0
2019-Sep-13 16:30N 49°05' W 123°20'0 0.0
2019-Sep-13 16:00N 49°05' W 123°20'0 0.0
2019-Sep-13 15:30N 49°05' W 123°20'0 0.0
2019-Sep-13 15:00N 49°05' W 123°20'0 0.0
2019-Sep-13 14:30N 49°05' W 123°20'0 0.2
2019-Sep-13 14:00N 49°05' W 123°21'3 6.1
2019-Sep-13 13:30N 49°03' W 123°24'4 8.0
2019-Sep-13 13:00N 48°59' W 123°27'0 0.9
2019-Sep-13 12:30N 48°59' W 123°26'0 0.7
2019-Sep-13 12:00N 48°59' W 123°26'0 0.3
2019-Sep-13 11:30N 48°59' W 123°26'1 1.1
2019-Sep-13 11:00N 48°59' W 123°27'0 0.4
2019-Sep-13 10:30N 48°59' W 123°27'0 0.3
2019-Sep-13 10:00N 48°59' W 123°27'0 0.4
2019-Sep-13 09:30N 48°59' W 123°27'0 0.4
2019-Sep-13 09:00N 48°59' W 123°27'0 0.7
2019-Sep-13 08:30N 48°59' W 123°27'0 0.5
2019-Sep-13 08:00N 48°60' W 123°27'1 1.2
2019-Sep-13 07:30N 48°60' W 123°26'0 0.6
2019-Sep-13 07:00N 49°00' W 123°26'0 0.7
2019-Sep-13 06:30N 48°60' W 123°26'0 0.4
2019-Sep-13 06:00N 48°60' W 123°26'2 4.6
2019-Sep-13 05:30N 49°01' W 123°24'1 2.3
2019-Sep-13 05:00N 49°02' W 123°24'5 9.6
2019-Sep-13 04:30N 49°05' W 123°30'4 6.6
2019-Sep-13 03:56N 49°08' W 123°35'1 3.5
2019-Sep-13 03:30N 49°09' W 123°35'510.0
2019-Sep-13 02:59N 49°07' W 123°28'510.9
2019-Sep-13 02:30N 49°05' W 123°21'0 0.2
2019-Sep-13 01:30N 49°05' W 123°20'0 0.1
2019-Sep-13 01:00N 49°05' W 123°20'0 0.0
2019-Sep-13 00:30N 49°05' W 123°20'0 0.1
2019-Sep-13 00:00N 49°05' W 123°20'0 0.0
2019-Sep-12 23:30N 49°05' W 123°20'0 0.0
2019-Sep-12 23:00N 49°05' W 123°20'0 0.0
2019-Sep-12 22:30N 49°05' W 123°20'0 0.0
2019-Sep-12 22:00N 49°05' W 123°20'0 0.0
2019-Sep-12 21:30N 49°05' W 123°20'0 0.0
2019-Sep-12 21:00N 49°05' W 123°20'0 0.1
2019-Sep-12 20:30N 49°05' W 123°20'0 0.0
2019-Sep-12 20:00N 49°05' W 123°20'0 0.0
2019-Sep-12 19:30N 49°05' W 123°20'0 0.0
2019-Sep-12 19:00N 49°05' W 123°20'0 0.0
2019-Sep-12 18:30N 49°05' W 123°20'0 0.0
2019-Sep-12 18:00N 49°05' W 123°20'0 0.0
2019-Sep-12 17:30N 49°05' W 123°20'0 0.0
2019-Sep-12 17:00N 49°05' W 123°20'0 0.0
2019-Sep-12 16:30N 49°05' W 123°20'0 0.0
2019-Sep-12 16:00N 49°05' W 123°20'0 0.0
2019-Sep-12 15:30N 49°05' W 123°20'0 0.0
2019-Sep-12 15:00N 49°05' W 123°20'0 0.0
2019-Sep-12 14:30N 49°05' W 123°20'0 0.1
2019-Sep-12 14:00N 49°05' W 123°20'3 5.7
2019-Sep-12 13:30N 49°03' W 123°24'4 7.2
2019-Sep-12 13:00N 48°60' W 123°27'0 0.9
2019-Sep-12 12:30N 49°00' W 123°27'0 0.1
2019-Sep-12 12:00N 48°60' W 123°27'0 0.8
2019-Sep-12 11:30N 48°60' W 123°27'0 0.9
2019-Sep-12 11:00N 48°59' W 123°26'0 0.3
2019-Sep-12 10:30N 48°59' W 123°27'0 0.7
2019-Sep-12 10:00N 48°60' W 123°27'0 0.2
2019-Sep-12 09:30N 48°60' W 123°27'1 1.2
2019-Sep-12 09:00N 48°59' W 123°26'5 9.1
2019-Sep-12 08:30N 48°57' W 123°20'4 9.0
2019-Sep-12 08:00N 48°54' W 123°14'5 9.0
2019-Sep-12 07:30N 48°52' W 123°09'5 9.8
2019-Sep-12 07:00N 48°51' W 123°01'4 8.6
2019-Sep-12 06:30N 48°47' W 123°01'5 9.7
2019-Sep-12 06:00N 48°44' W 123°07'4 7.1
2019-Sep-12 05:30N 48°43' W 123°12'5 9.3
2019-Sep-12 05:00N 48°45' W 123°19'510.9
2019-Sep-12 04:30N 48°43' W 123°27'4 7.9
2019-Sep-12 04:00N 48°39' W 123°29'0 0.1
2019-Sep-12 03:30N 48°39' W 123°29'0 0.0
2019-Sep-12 03:00N 48°39' W 123°29'0 0.0
2019-Sep-12 02:30N 48°39' W 123°29'0 0.0
2019-Sep-12 02:01N 48°39' W 123°29'0 0.0
2019-Sep-12 01:30N 48°39' W 123°29'0 0.0
2019-Sep-12 01:00N 48°39' W 123°29'0 0.0
2019-Sep-12 00:30N 48°39' W 123°29'0 0.0
2019-Sep-12 00:00N 48°39' W 123°29'0 0.0
2019-Sep-11 23:30N 48°39' W 123°29'1 2.4
2019-Sep-11 22:58N 48°39' W 123°27'0 0.0
2019-Sep-11 22:28N 48°39' W 123°27'0 0.0
2019-Sep-11 21:55N 48°39' W 123°27'0 0.0
2019-Sep-11 21:28N 48°39' W 123°27'0 0.0
2019-Sep-11 20:58N 48°39' W 123°27'0 0.0
2019-Sep-11 20:28N 48°39' W 123°27'0 0.0
2019-Sep-11 19:58N 48°39' W 123°27'0 0.0
2019-Sep-11 19:28N 48°39' W 123°27'0 0.0
2019-Sep-11 18:58N 48°39' W 123°27'0 0.0
2019-Sep-11 18:28N 48°39' W 123°27'0 0.0
2019-Sep-11 17:58N 48°39' W 123°27'0 0.0
2019-Sep-11 17:28N 48°39' W 123°27'0 0.0
2019-Sep-11 16:58N 48°39' W 123°27'0 0.0
2019-Sep-11 16:28N 48°39' W 123°27'0 0.0
2019-Sep-11 15:58N 48°39' W 123°27'0 0.0
2019-Sep-11 15:28N 48°39' W 123°27'0 0.0
2019-Sep-11 14:58N 48°39' W 123°27'0 0.0
2019-Sep-11 14:28N 48°39' W 123°27'0 0.0
2019-Sep-11 13:58N 48°39' W 123°27'0 0.0
2019-Sep-11 13:28N 48°39' W 123°27'0 0.0
2019-Sep-11 12:58N 48°39' W 123°27'0 0.0
2019-Sep-11 12:28N 48°39' W 123°27'0 0.0
2019-Sep-11 11:58N 48°39' W 123°27'0 0.0
2019-Sep-11 11:28N 48°39' W 123°27'0 0.0
2019-Sep-11 10:58N 48°39' W 123°27'0 0.0
2019-Sep-11 10:28N 48°39' W 123°27'0 0.0
2019-Sep-11 09:58N 48°39' W 123°27'0 0.0
2019-Sep-11 09:28N 48°39' W 123°27'0 0.0
2019-Sep-11 08:58N 48°39' W 123°27'0 0.0
2019-Sep-11 08:28N 48°39' W 123°27'0 0.0
2019-Sep-11 07:58N 48°39' W 123°27'0 0.0
2019-Sep-11 07:28N 48°39' W 123°27'0 0.0
2019-Sep-11 06:58N 48°39' W 123°27'0 0.0
2019-Sep-11 06:28N 48°39' W 123°27'0 0.0
2019-Sep-11 05:58N 48°39' W 123°27'0 0.0
2019-Sep-11 05:28N 48°39' W 123°27'0 0.0
2019-Sep-11 04:55N 48°39' W 123°27'0 0.0
2019-Sep-11 04:28N 48°39' W 123°27'0 0.0
2019-Sep-11 03:58N 48°39' W 123°27'0 0.0
2019-Sep-11 03:28N 48°39' W 123°27'0 0.0
2019-Sep-11 02:52N 48°39' W 123°27'0 0.0
2019-Sep-11 02:28N 48°39' W 123°27'0 0.0
2019-Sep-11 01:52N 48°39' W 123°27'0 0.0
2019-Sep-11 01:25N 48°39' W 123°27'0 0.0
2019-Sep-11 00:58N 48°39' W 123°27'0 0.0
2019-Sep-11 00:28N 48°39' W 123°27'0 0.0
2019-Sep-10 23:58N 48°39' W 123°27'0 0.0
2019-Sep-10 23:28N 48°39' W 123°27'0 0.0
2019-Sep-10 22:58N 48°39' W 123°27'0 0.0
2019-Sep-10 22:28N 48°39' W 123°27'0 0.0
2019-Sep-10 21:58N 48°39' W 123°27'0 0.0
2019-Sep-10 21:28N 48°39' W 123°27'0 0.0
2019-Sep-10 20:58N 48°39' W 123°27'0 0.0
2019-Sep-10 20:28N 48°39' W 123°27'0 0.0
2019-Sep-10 19:58N 48°39' W 123°27'0 0.0
2019-Sep-10 19:28N 48°39' W 123°27'0 0.0
2019-Sep-10 18:58N 48°39' W 123°27'0 0.0
2019-Sep-10 18:28N 48°39' W 123°27'0 0.0
2019-Sep-10 17:55N 48°39' W 123°27'0 0.0
2019-Sep-10 17:28N 48°39' W 123°27'0 0.0
2019-Sep-10 16:58N 48°39' W 123°27'0 0.0
2019-Sep-10 16:28N 48°39' W 123°27'0 0.0
2019-Sep-10 15:58N 48°39' W 123°27'0 0.0
2019-Sep-10 15:28N 48°39' W 123°27'0 0.0
2019-Sep-10 14:58N 48°39' W 123°27'0 0.0
2019-Sep-10 14:28N 48°39' W 123°27'0 0.0
2019-Sep-10 13:58N 48°39' W 123°27'0 0.0
2019-Sep-10 13:28N 48°39' W 123°27'0 0.0
2019-Sep-10 12:58N 48°39' W 123°27'0 0.0
2019-Sep-10 12:28N 48°39' W 123°27'0 0.0
2019-Sep-10 11:58N 48°39' W 123°27'0 0.0
2019-Sep-10 11:28N 48°39' W 123°27'0 0.0
2019-Sep-10 10:58N 48°39' W 123°27'0 0.0
2019-Sep-10 10:28N 48°39' W 123°27'0 0.0
2019-Sep-10 09:58N 48°39' W 123°27'0 0.0
2019-Sep-10 09:28N 48°39' W 123°27'0 0.0
2019-Sep-10 08:22N 48°39' W 123°27'0 0.0
2019-Sep-10 07:58N 48°39' W 123°27'0 0.0
2019-Sep-10 07:00N 48°39' W 123°27'0 0.0
2019-Sep-10 06:30N 48°39' W 123°27'0 0.0
2019-Sep-10 05:58N 48°39' W 123°27'0 0.0
2019-Sep-10 05:29N 48°39' W 123°27'0 0.0
2019-Sep-10 04:59N 48°39' W 123°27'0 0.0
2019-Sep-10 04:25N 48°39' W 123°27'0 0.0
2019-Sep-10 03:58N 48°39' W 123°27'0 0.0
2019-Sep-10 03:24N 48°39' W 123°27'0 0.0
2019-Sep-10 03:00N 48°39' W 123°27'0 0.0
2019-Sep-10 02:30N 48°39' W 123°27'0 0.0
2019-Sep-10 02:00N 48°39' W 123°27'0 0.0
2019-Sep-10 01:30N 48°39' W 123°27'0 0.0
2019-Sep-10 00:21N 48°39' W 123°27'0 0.0
2019-Sep-10 00:00N 48°39' W 123°27'0 0.0
2019-Sep-09 23:30N 48°39' W 123°27'0 0.0
2019-Sep-09 23:00N 48°39' W 123°27'0 0.0
2019-Sep-09 22:27N 48°39' W 123°27'0 0.0
2019-Sep-09 22:00N 48°39' W 123°27'0 0.0
2019-Sep-09 21:27N 48°39' W 123°27'0 0.0
2019-Sep-09 21:00N 48°39' W 123°27'0 0.0
2019-Sep-09 20:30N 48°39' W 123°27'0 0.0
2019-Sep-09 20:00N 48°39' W 123°27'0 0.0
2019-Sep-09 19:30N 48°39' W 123°27'0 0.0
2019-Sep-09 19:00N 48°39' W 123°27'0 0.0
2019-Sep-09 18:30N 48°39' W 123°27'0 0.0
2019-Sep-09 17:57N 48°39' W 123°27'0 0.0
2019-Sep-09 17:30N 48°39' W 123°27'0 0.0
2019-Sep-09 16:51N 48°39' W 123°27'0 0.0
2019-Sep-09 16:30N 48°39' W 123°27'0 0.0
2019-Sep-09 15:57N 48°39' W 123°27'0 0.0
2019-Sep-09 15:30N 48°39' W 123°27'0 0.0
2019-Sep-09 14:57N 48°39' W 123°27'0 0.8
2019-Sep-09 14:30N 48°39' W 123°28'2 3.5
2019-Sep-09 14:00N 48°40' W 123°30'0 0.1
2019-Sep-09 13:30N 48°40' W 123°30'1 2.9
2019-Sep-09 13:00N 48°41' W 123°30'2 4.6
2019-Sep-09 12:30N 48°43' W 123°27'3 5.8
2019-Sep-09 12:00N 48°44' W 123°24'3 5.7
2019-Sep-09 11:30N 48°45' W 123°19'3 6.1
2019-Sep-09 11:00N 48°44' W 123°15'4 8.5
2019-Sep-09 10:30N 48°44' W 123°09'5 9.3
2019-Sep-09 09:59N 48°47' W 123°02'3 6.7
2019-Sep-09 09:30N 48°50' W 123°03'4 8.6
2019-Sep-09 09:00N 48°53' W 123°08'4 8.4
2019-Sep-09 08:30N 48°56' W 123°12'4 8.6
2019-Sep-09 08:00N 48°59' W 123°17'4 8.3
2019-Sep-09 07:30N 49°01' W 123°22'3 5.0
2019-Sep-09 07:00N 49°02' W 123°26'0 0.1
2019-Sep-09 06:30N 49°02' W 123°26'0 0.2
2019-Sep-09 06:00N 49°02' W 123°26'2 4.0
2019-Sep-09 05:30N 49°03' W 123°24'2 3.3
2019-Sep-09 05:00N 49°03' W 123°22'0 0.2
2019-Sep-09 04:30N 49°03' W 123°22'3 6.9
2019-Sep-09 04:00N 49°06' W 123°25'4 8.6
2019-Sep-09 03:30N 49°10' W 123°26'2 3.6
2019-Sep-09 03:00N 49°12' W 123°26'0 0.5
2019-Sep-09 02:00N 49°12' W 123°27'4 8.3
2019-Sep-09 01:30N 49°13' W 123°33'4 8.4
2019-Sep-09 01:00N 49°14' W 123°40'4 7.1
2019-Sep-09 00:30N 49°15' W 123°45'0 0.2
2019-Sep-09 00:00N 49°15' W 123°45'0 0.0
2019-Sep-08 23:30N 49°15' W 123°45'0 0.0
2019-Sep-08 23:00N 49°15' W 123°45'4 7.0
2019-Sep-08 22:30N 49°19' W 123°45'5 8.9
2019-Sep-08 22:00N 49°23' W 123°45'1 2.1
2019-Sep-08 21:30N 49°24' W 123°45'2 3.6
2019-Sep-08 21:00N 49°24' W 123°48'4 8.3
2019-Sep-08 20:30N 49°23' W 123°55'4 8.5
2019-Sep-08 20:00N 49°22' W 124°01'3 5.4
2019-Sep-08 19:30N 49°22' W 124°05'0 0.0
2019-Sep-08 19:00N 49°22' W 124°05'4 7.7
2019-Sep-08 18:30N 49°23' W 124°11'4 8.4
2019-Sep-08 18:00N 49°25' W 124°17'4 8.7
2019-Sep-08 17:29N 49°27' W 124°23'5 8.6
2019-Sep-08 16:56N 49°28' W 124°30'0 0.1
2019-Sep-08 16:17N 49°28' W 124°30'1 3.5
2019-Sep-08 15:58N 49°29' W 124°29'13 8.9
2019-Sep-08 14:31N 49°29' W 124°09'010.0
2019-Sep-08 14:29N 49°29' W 124°09'0 0.3
2019-Sep-08 13:04N 49°29' W 124°09'1 9.7
2019-Sep-08 13:00N 49°29' W 124°09'2 2.8
2019-Sep-08 12:14N 49°30' W 124°06'0 0.2
2019-Sep-08 12:00N 49°30' W 124°06'13 4.5
2019-Sep-08 09:05N 49°41' W 124°18'4 8.0
2019-Sep-08 08:33N 49°44' W 124°22'4 8.3
2019-Sep-08 08:08N 49°45' W 124°27'1 7.7
2019-Sep-08 08:00N 49°46' W 124°28'4 7.8
2019-Sep-08 07:29N 49°48' W 124°34'3 6.1
2019-Sep-08 07:00N 49°49' W 124°38'4 7.6
2019-Sep-08 06:29N 49°45' W 124°40'1 2.9
2019-Sep-08 06:00N 49°43' W 124°41'0 0.1
2019-Sep-08 05:30N 49°44' W 124°41'0 0.1
2019-Sep-08 05:00N 49°44' W 124°41'2 3.9
2019-Sep-08 04:29N 49°42' W 124°43'0 0.0
2019-Sep-08 03:58N 49°42' W 124°43'2 4.5
2019-Sep-08 03:29N 49°44' W 124°46'4 8.3
2019-Sep-08 03:00N 49°47' W 124°49'3 6.9
2019-Sep-08 02:30N 49°50' W 124°52'0 0.0
2019-Sep-08 02:00N 49°50' W 124°52'1 2.4
2019-Sep-08 01:30N 49°51' W 124°53'1 2.7
2019-Sep-08 01:00N 49°52' W 124°55'1 1.2
2019-Sep-08 00:30N 49°52' W 124°55'0 0.3
2019-Sep-08 00:00N 49°52' W 124°55'1 1.0
2019-Sep-07 23:30N 49°52' W 124°56'2 4.4
2019-Sep-07 23:00N 49°53' W 124°60'0 0.0
2019-Sep-07 22:30N 49°53' W 124°60'0 0.8
2019-Sep-07 22:00N 49°53' W 124°59'4 7.6
2019-Sep-07 21:30N 49°56' W 125°04'1 2.9
2019-Sep-07 21:00N 49°57' W 125°06'2 4.4
2019-Sep-07 20:30N 49°58' W 125°09'2 4.6
2019-Sep-07 20:00N 49°59' W 125°12'612.9
2019-Sep-07 19:30N 50°04' W 125°16'612.1
2019-Sep-07 18:59N 50°10' W 125°22'88 7.5
2019-Sep-07 07:18N 50°49' W 127°25'4 9.2
2019-Sep-07 06:53N 50°51' W 127°30'3 8.5
2019-Sep-07 06:30N 50°53' W 127°34'5 9.3
2019-Sep-07 06:00N 50°55' W 127°41'5 9.5
2019-Sep-07 05:30N 50°58' W 127°46'3 6.2
2019-Sep-07 05:00N 51°00' W 127°50'1 1.7
2019-Sep-07 04:30N 51°01' W 127°50'4 8.4
2019-Sep-07 04:00N 51°05' W 127°52'4 8.3
2019-Sep-07 03:30N 51°09' W 127°54'4 8.6
2019-Sep-07 03:00N 51°13' W 127°54'  
Track history (hours):
 
Tides and Currents Weather Stations Pressure Air Temp Water Temp Dewpoint Dewpoint Depression Visibility Wind Speed Wind Dir Waves Ship Positions

Oceanographic research ship John P. Tully (Canada)

Detailed information on ship capabilities available from University of Delaware's Ocean Information Center.

Last reported at 2019-Sep-17 02:46 UTC. Time now 2019-Sep-22 00:00 UTC.
Position N 48°20' W 126°17'.

Length 68.9 m; beam 14.5 m; draft 4.5 m.

Type: SAR. MMSI: 316114000.

Date/timePositionNaut miles runAvg speedWind from/ knotsBaromVisibWave heightAir tempDewpointWater temp
2019-Sep-17 02:46N 48°20' W 126°17'4 8.9
2019-Sep-17 02:18N 48°21' W 126°10'1 0.2
2019-Sep-16 21:55N 48°21' W 126°09'0 0.1
2019-Sep-16 21:16N 48°21' W 126°09'2 7.8
2019-Sep-16 20:59N 48°21' W 126°06'5 9.3
2019-Sep-16 20:26N 48°22' W 125°59'4 7.9
2019-Sep-16 19:55N 48°23' W 125°53'3 8.1
2019-Sep-16 19:30N 48°24' W 125°48'5 8.4
2019-Sep-16 18:52N 48°25' W 125°40'3 8.2
2019-Sep-16 18:30N 48°26' W 125°36'4 7.9
2019-Sep-16 18:00N 48°27' W 125°30'7 8.0
2019-Sep-16 17:11N 48°29' W 125°20'2 8.4
2019-Sep-16 17:00N 48°29' W 125°18'5 9.1
2019-Sep-16 16:26N 48°30' W 125°10'4 9.3
2019-Sep-16 16:00N 48°31' W 125°04'510.2
2019-Sep-16 15:30N 48°31' W 124°57'5 9.7
2019-Sep-16 15:00N 48°31' W 124°49'5 9.5
2019-Sep-16 14:30N 48°31' W 124°42'5 9.8
2019-Sep-16 14:00N 48°29' W 124°35'5 9.6
2019-Sep-16 13:30N 48°27' W 124°29'5 9.2
2019-Sep-16 13:00N 48°25' W 124°22'4 8.8
2019-Sep-16 12:30N 48°23' W 124°16'4 8.6
2019-Sep-16 12:00N 48°22' W 124°10'4 8.6
2019-Sep-16 11:30N 48°20' W 124°04'4 8.8
2019-Sep-16 10:59N 48°18' W 123°58'4 8.8
2019-Sep-16 10:30N 48°17' W 123°52'5 9.4
2019-Sep-16 09:58N 48°17' W 123°44'510.3
2019-Sep-16 09:30N 48°16' W 123°37'5 9.9
2019-Sep-16 09:00N 48°16' W 123°30'5 9.6
2019-Sep-16 08:30N 48°20' W 123°27'4 8.9
2019-Sep-16 08:00N 48°23' W 123°21'5 9.6
2019-Sep-16 07:30N 48°24' W 123°14'5 9.3
2019-Sep-16 07:00N 48°29' W 123°12'612.1
2019-Sep-16 06:30N 48°34' W 123°14'612.2
2019-Sep-16 06:00N 48°40' W 123°16'510.8
2019-Sep-16 05:30N 48°44' W 123°09'611.9
2019-Sep-16 05:00N 48°47' W 123°02'510.4
2019-Sep-16 04:30N 48°52' W 123°04'611.7
2019-Sep-16 04:01N 48°56' W 123°11'611.6
2019-Sep-16 03:30N 48°60' W 123°17'510.6
2019-Sep-16 03:00N 49°04' W 123°21'1 2.3
2019-Sep-16 02:30N 49°05' W 123°20'0 0.0
2019-Sep-16 02:00N 49°05' W 123°20'0 0.0
2019-Sep-16 01:30N 49°05' W 123°20'0 0.0
2019-Sep-16 01:00N 49°05' W 123°20'0 0.0
2019-Sep-16 00:30N 49°05' W 123°20'0 0.0
2019-Sep-16 00:01N 49°05' W 123°20'0 0.0
2019-Sep-15 23:30N 49°05' W 123°20'0 0.0
2019-Sep-15 23:00N 49°05' W 123°20'0 0.0
2019-Sep-15 22:29N 49°05' W 123°20'0 0.0
2019-Sep-15 22:00N 49°05' W 123°20'0 0.0
2019-Sep-15 21:30N 49°05' W 123°20'0 0.0
2019-Sep-15 21:00N 49°05' W 123°20'0 0.0
2019-Sep-15 20:30N 49°05' W 123°20'0 0.0
2019-Sep-15 20:00N 49°05' W 123°20'0 0.0
2019-Sep-15 19:30N 49°05' W 123°20'0 0.0
2019-Sep-15 19:00N 49°05' W 123°20'0 0.0
2019-Sep-15 18:30N 49°05' W 123°20'0 0.0
2019-Sep-15 18:00N 49°05' W 123°20'0 0.1
2019-Sep-15 17:30N 49°05' W 123°20'1 2.9
2019-Sep-15 17:00N 49°04' W 123°19'1 2.9
2019-Sep-15 16:31N 49°05' W 123°20'0 0.0
2019-Sep-15 16:00N 49°05' W 123°20'0 0.0
2019-Sep-15 15:30N 49°05' W 123°20'0 0.0
2019-Sep-15 15:00N 49°05' W 123°20'0 0.0
2019-Sep-15 14:30N 49°05' W 123°20'0 0.0
2019-Sep-15 14:00N 49°05' W 123°20'0 0.0
2019-Sep-15 13:30N 49°05' W 123°20'0 0.0
2019-Sep-15 13:00N 49°05' W 123°20'0 0.0
2019-Sep-15 12:30N 49°05' W 123°20'0 0.0
2019-Sep-15 12:00N 49°05' W 123°20'0 0.0
2019-Sep-15 11:30N 49°05' W 123°20'0 0.0
2019-Sep-15 11:00N 49°05' W 123°20'0 0.0
2019-Sep-15 10:30N 49°05' W 123°20'0 0.0
2019-Sep-15 10:00N 49°05' W 123°20'0 0.0
2019-Sep-15 09:30N 49°05' W 123°20'0 0.0
2019-Sep-15 09:00N 49°05' W 123°20'0 0.0
2019-Sep-15 08:30N 49°05' W 123°20'0 0.0
2019-Sep-15 08:01N 49°05' W 123°20'0 0.0
2019-Sep-15 07:30N 49°05' W 123°20'0 0.0
2019-Sep-15 07:00N 49°05' W 123°20'0 0.0
2019-Sep-15 06:30N 49°05' W 123°20'0 0.0
2019-Sep-15 06:00N 49°05' W 123°20'0 0.0
2019-Sep-15 05:30N 49°05' W 123°20'0 0.0
2019-Sep-15 05:00N 49°05' W 123°20'0 0.0
2019-Sep-15 04:30N 49°05' W 123°20'0 0.0
2019-Sep-15 04:00N 49°05' W 123°20'0 0.0
2019-Sep-15 03:30N 49°05' W 123°20'0 0.0
2019-Sep-15 03:00N 49°05' W 123°20'0 0.1
2019-Sep-15 02:30N 49°05' W 123°20'0 0.1
2019-Sep-15 02:00N 49°05' W 123°20'0 0.1
2019-Sep-15 01:30N 49°05' W 123°20'0 0.0
2019-Sep-15 01:00N 49°05' W 123°20'0 0.0
2019-Sep-15 00:30N 49°05' W 123°20'0 0.0
2019-Sep-15 00:00N 49°05' W 123°20'0 0.0
2019-Sep-14 23:30N 49°05' W 123°20'0 0.0
2019-Sep-14 23:00N 49°05' W 123°20'0 0.0
2019-Sep-14 22:31N 49°05' W 123°20'0 0.1
2019-Sep-14 22:00N 49°05' W 123°20'0 0.1
2019-Sep-14 21:30N 49°05' W 123°20'0 0.0
2019-Sep-14 21:00N 49°05' W 123°20'0 0.2
2019-Sep-14 20:30N 49°05' W 123°20'0 0.3
2019-Sep-14 20:00N 49°05' W 123°20'0 0.3
2019-Sep-14 19:30N 49°05' W 123°20'1 1.0
2019-Sep-14 19:00N 49°05' W 123°19'1 1.1
2019-Sep-14 18:30N 49°05' W 123°20'0 0.3
2019-Sep-14 18:00N 49°05' W 123°20'0 0.2
2019-Sep-14 17:30N 49°05' W 123°20'0 0.0
2019-Sep-14 17:01N 49°05' W 123°20'0 0.0
2019-Sep-14 16:30N 49°05' W 123°20'0 0.0
2019-Sep-14 16:00N 49°05' W 123°20'0 0.0
2019-Sep-14 15:30N 49°05' W 123°20'0 0.0
2019-Sep-14 15:01N 49°05' W 123°20'0 0.0
2019-Sep-14 14:31N 49°05' W 123°20'0 0.0
2019-Sep-14 14:01N 49°05' W 123°20'0 0.5
2019-Sep-14 13:30N 49°05' W 123°20'3 6.5
2019-Sep-14 13:00N 49°03' W 123°24'4 8.8
2019-Sep-14 12:30N 48°60' W 123°28'1 1.2
2019-Sep-14 12:00N 48°60' W 123°27'1 1.1
2019-Sep-14 11:30N 48°59' W 123°28'0 0.6
2019-Sep-14 11:00N 48°59' W 123°28'0 0.8
2019-Sep-14 10:30N 48°60' W 123°27'0 0.6
2019-Sep-14 10:00N 48°60' W 123°27'0 0.3
2019-Sep-14 09:30N 48°60' W 123°26'1 1.3
2019-Sep-14 09:00N 48°59' W 123°27'1 2.2
2019-Sep-14 08:30N 48°59' W 123°25'0 0.1
2019-Sep-14 08:00N 48°59' W 123°26'0 0.6
2019-Sep-14 07:30N 48°59' W 123°26'0 0.6
2019-Sep-14 07:00N 48°59' W 123°26'0 0.4
2019-Sep-14 06:30N 48°59' W 123°27'0 0.2
2019-Sep-14 06:00N 48°59' W 123°27'0 0.4
2019-Sep-14 05:30N 48°59' W 123°27'0 0.0
2019-Sep-14 05:00N 48°59' W 123°27'0 0.8
2019-Sep-14 04:30N 48°59' W 123°27'2 3.0
2019-Sep-14 04:00N 49°01' W 123°28'0 0.2
2019-Sep-14 03:30N 49°01' W 123°28'0 0.1
2019-Sep-14 03:00N 49°01' W 123°28'3 6.8
2019-Sep-14 02:30N 49°04' W 123°25'4 7.6
2019-Sep-14 02:01N 49°05' W 123°20'0 0.0
2019-Sep-14 01:30N 49°05' W 123°20'0 0.0
2019-Sep-14 01:00N 49°05' W 123°20'0 0.0
2019-Sep-14 00:30N 49°05' W 123°20'0 0.0
2019-Sep-14 00:00N 49°05' W 123°20'0 0.0
2019-Sep-13 23:30N 49°05' W 123°20'0 0.0
2019-Sep-13 23:00N 49°05' W 123°20'0 0.0
2019-Sep-13 22:30N 49°05' W 123°20'0 0.0
2019-Sep-13 22:00N 49°05' W 123°20'0 0.0
2019-Sep-13 21:31N 49°05' W 123°20'0 0.0
2019-Sep-13 21:00N 49°05' W 123°20'0 0.0
2019-Sep-13 20:30N 49°05' W 123°20'0 0.1
2019-Sep-13 20:00N 49°05' W 123°20'0 0.8
2019-Sep-13 19:30N 49°05' W 123°20'0 0.1
2019-Sep-13 19:00N 49°05' W 123°20'0 0.0
2019-Sep-13 18:30N 49°05' W 123°20'0 0.0
2019-Sep-13 18:00N 49°05' W 123°20'0 0.0
2019-Sep-13 17:30N 49°05' W 123°20'0 0.0
2019-Sep-13 17:00N 49°05' W 123°20'0 0.0
2019-Sep-13 16:30N 49°05' W 123°20'0 0.0
2019-Sep-13 16:00N 49°05' W 123°20'0 0.0
2019-Sep-13 15:30N 49°05' W 123°20'0 0.0
2019-Sep-13 15:00N 49°05' W 123°20'0 0.0
2019-Sep-13 14:30N 49°05' W 123°20'0 0.2
2019-Sep-13 14:00N 49°05' W 123°21'3 6.1
2019-Sep-13 13:30N 49°03' W 123°24'4 8.0
2019-Sep-13 13:00N 48°59' W 123°27'0 0.9
2019-Sep-13 12:30N 48°59' W 123°26'0 0.7
2019-Sep-13 12:00N 48°59' W 123°26'0 0.3
2019-Sep-13 11:30N 48°59' W 123°26'1 1.1
2019-Sep-13 11:00N 48°59' W 123°27'0 0.4
2019-Sep-13 10:30N 48°59' W 123°27'0 0.3
2019-Sep-13 10:00N 48°59' W 123°27'0 0.4
2019-Sep-13 09:30N 48°59' W 123°27'0 0.4
2019-Sep-13 09:00N 48°59' W 123°27'0 0.7
2019-Sep-13 08:30N 48°59' W 123°27'0 0.5
2019-Sep-13 08:00N 48°60' W 123°27'1 1.2
2019-Sep-13 07:30N 48°60' W 123°26'0 0.6
2019-Sep-13 07:00N 49°00' W 123°26'0 0.7
2019-Sep-13 06:30N 48°60' W 123°26'0 0.4
2019-Sep-13 06:00N 48°60' W 123°26'2 4.6
2019-Sep-13 05:30N 49°01' W 123°24'1 2.3
2019-Sep-13 05:00N 49°02' W 123°24'5 9.6
2019-Sep-13 04:30N 49°05' W 123°30'4 6.6
2019-Sep-13 03:56N 49°08' W 123°35'1 3.5
2019-Sep-13 03:30N 49°09' W 123°35'510.0
2019-Sep-13 02:59N 49°07' W 123°28'510.9
2019-Sep-13 02:30N 49°05' W 123°21'0 0.2
2019-Sep-13 01:30N 49°05' W 123°20'0 0.1
2019-Sep-13 01:00N 49°05' W 123°20'0 0.0
2019-Sep-13 00:30N 49°05' W 123°20'0 0.1
2019-Sep-13 00:00N 49°05' W 123°20'0 0.0
2019-Sep-12 23:30N 49°05' W 123°20'0 0.0
2019-Sep-12 23:00N 49°05' W 123°20'0 0.0
2019-Sep-12 22:30N 49°05' W 123°20'0 0.0
2019-Sep-12 22:00N 49°05' W 123°20'0 0.0
2019-Sep-12 21:30N 49°05' W 123°20'0 0.0
2019-Sep-12 21:00N 49°05' W 123°20'0 0.1
2019-Sep-12 20:30N 49°05' W 123°20'0 0.0
2019-Sep-12 20:00N 49°05' W 123°20'0 0.0
2019-Sep-12 19:30N 49°05' W 123°20'0 0.0
2019-Sep-12 19:00N 49°05' W 123°20'0 0.0
2019-Sep-12 18:30N 49°05' W 123°20'0 0.0
2019-Sep-12 18:00N 49°05' W 123°20'0 0.0
2019-Sep-12 17:30N 49°05' W 123°20'0 0.0
2019-Sep-12 17:00N 49°05' W 123°20'0 0.0
2019-Sep-12 16:30N 49°05' W 123°20'0 0.0
2019-Sep-12 16:00N 49°05' W 123°20'0 0.0
2019-Sep-12 15:30N 49°05' W 123°20'0 0.0
2019-Sep-12 15:00N 49°05' W 123°20'0 0.0
2019-Sep-12 14:30N 49°05' W 123°20'0 0.1
2019-Sep-12 14:00N 49°05' W 123°20'3 5.7
2019-Sep-12 13:30N 49°03' W 123°24'4 7.2
2019-Sep-12 13:00N 48°60' W 123°27'0 0.9
2019-Sep-12 12:30N 49°00' W 123°27'0 0.1
2019-Sep-12 12:00N 48°60' W 123°27'0 0.8
2019-Sep-12 11:30N 48°60' W 123°27'0 0.9
2019-Sep-12 11:00N 48°59' W 123°26'0 0.3
2019-Sep-12 10:30N 48°59' W 123°27'0 0.7
2019-Sep-12 10:00N 48°60' W 123°27'0 0.2
2019-Sep-12 09:30N 48°60' W 123°27'1 1.2
2019-Sep-12 09:00N 48°59' W 123°26'5 9.1
2019-Sep-12 08:30N 48°57' W 123°20'4 9.0
2019-Sep-12 08:00N 48°54' W 123°14'5 9.0
2019-Sep-12 07:30N 48°52' W 123°09'5 9.8
2019-Sep-12 07:00N 48°51' W 123°01'4 8.6
2019-Sep-12 06:30N 48°47' W 123°01'5 9.7
2019-Sep-12 06:00N 48°44' W 123°07'4 7.1
2019-Sep-12 05:30N 48°43' W 123°12'5 9.3
2019-Sep-12 05:00N 48°45' W 123°19'510.9
2019-Sep-12 04:30N 48°43' W 123°27'4 7.9
2019-Sep-12 04:00N 48°39' W 123°29'0 0.1
2019-Sep-12 03:30N 48°39' W 123°29'0 0.0
2019-Sep-12 03:00N 48°39' W 123°29'0 0.0
2019-Sep-12 02:30N 48°39' W 123°29'0 0.0
2019-Sep-12 02:01N 48°39' W 123°29'0 0.0
2019-Sep-12 01:30N 48°39' W 123°29'0 0.0
2019-Sep-12 01:00N 48°39' W 123°29'0 0.0
2019-Sep-12 00:30N 48°39' W 123°29'0 0.0
2019-Sep-12 00:00N 48°39' W 123°29'0 0.0
2019-Sep-11 23:30N 48°39' W 123°29'1 2.4
2019-Sep-11 22:58N 48°39' W 123°27'0 0.0
2019-Sep-11 22:28N 48°39' W 123°27'0 0.0
2019-Sep-11 21:55N 48°39' W 123°27'0 0.0
2019-Sep-11 21:28N 48°39' W 123°27'0 0.0
2019-Sep-11 20:58N 48°39' W 123°27'0 0.0
2019-Sep-11 20:28N 48°39' W 123°27'0 0.0
2019-Sep-11 19:58N 48°39' W 123°27'0 0.0
2019-Sep-11 19:28N 48°39' W 123°27'0 0.0
2019-Sep-11 18:58N 48°39' W 123°27'0 0.0
2019-Sep-11 18:28N 48°39' W 123°27'0 0.0
2019-Sep-11 17:58N 48°39' W 123°27'0 0.0
2019-Sep-11 17:28N 48°39' W 123°27'0 0.0
2019-Sep-11 16:58N 48°39' W 123°27'0 0.0
2019-Sep-11 16:28N 48°39' W 123°27'0 0.0
2019-Sep-11 15:58N 48°39' W 123°27'0 0.0
2019-Sep-11 15:28N 48°39' W 123°27'0 0.0
2019-Sep-11 14:58N 48°39' W 123°27'0 0.0
2019-Sep-11 14:28N 48°39' W 123°27'0 0.0
2019-Sep-11 13:58N 48°39' W 123°27'0 0.0
2019-Sep-11 13:28N 48°39' W 123°27'0 0.0
2019-Sep-11 12:58N 48°39' W 123°27'0 0.0
2019-Sep-11 12:28N 48°39' W 123°27'0 0.0
2019-Sep-11 11:58N 48°39' W 123°27'0 0.0
2019-Sep-11 11:28N 48°39' W 123°27'0 0.0
2019-Sep-11 10:58N 48°39' W 123°27'0 0.0
2019-Sep-11 10:28N 48°39' W 123°27'0 0.0
2019-Sep-11 09:58N 48°39' W 123°27'0 0.0
2019-Sep-11 09:28N 48°39' W 123°27'0 0.0
2019-Sep-11 08:58N 48°39' W 123°27'0 0.0
2019-Sep-11 08:28N 48°39' W 123°27'0 0.0
2019-Sep-11 07:58N 48°39' W 123°27'0 0.0
2019-Sep-11 07:28N 48°39' W 123°27'0 0.0
2019-Sep-11 06:58N 48°39' W 123°27'0 0.0
2019-Sep-11 06:28N 48°39' W 123°27'0 0.0
2019-Sep-11 05:58N 48°39' W 123°27'0 0.0
2019-Sep-11 05:28N 48°39' W 123°27'0 0.0
2019-Sep-11 04:55N 48°39' W 123°27'0 0.0
2019-Sep-11 04:28N 48°39' W 123°27'0 0.0
2019-Sep-11 03:58N 48°39' W 123°27'0 0.0
2019-Sep-11 03:28N 48°39' W 123°27'0 0.0
2019-Sep-11 02:52N 48°39' W 123°27'0 0.0
2019-Sep-11 02:28N 48°39' W 123°27'0 0.0
2019-Sep-11 01:52N 48°39' W 123°27'0 0.0
2019-Sep-11 01:25N 48°39' W 123°27'0 0.0
2019-Sep-11 00:58N 48°39' W 123°27'0 0.0
2019-Sep-11 00:28N 48°39' W 123°27'0 0.0
2019-Sep-10 23:58N 48°39' W 123°27'0 0.0
2019-Sep-10 23:28N 48°39' W 123°27'0 0.0
2019-Sep-10 22:58N 48°39' W 123°27'0 0.0
2019-Sep-10 22:28N 48°39' W 123°27'0 0.0
2019-Sep-10 21:58N 48°39' W 123°27'0 0.0
2019-Sep-10 21:28N 48°39' W 123°27'0 0.0
2019-Sep-10 20:58N 48°39' W 123°27'0 0.0
2019-Sep-10 20:28N 48°39' W 123°27'0 0.0
2019-Sep-10 19:58N 48°39' W 123°27'0 0.0
2019-Sep-10 19:28N 48°39' W 123°27'0 0.0
2019-Sep-10 18:58N 48°39' W 123°27'0 0.0
2019-Sep-10 18:28N 48°39' W 123°27'0 0.0
2019-Sep-10 17:55N 48°39' W 123°27'0 0.0
2019-Sep-10 17:28N 48°39' W 123°27'0 0.0
2019-Sep-10 16:58N 48°39' W 123°27'0 0.0
2019-Sep-10 16:28N 48°39' W 123°27'0 0.0
2019-Sep-10 15:58N 48°39' W 123°27'0 0.0
2019-Sep-10 15:28N 48°39' W 123°27'0 0.0
2019-Sep-10 14:58N 48°39' W 123°27'0 0.0
2019-Sep-10 14:28N 48°39' W 123°27'0 0.0
2019-Sep-10 13:58N 48°39' W 123°27'0 0.0
2019-Sep-10 13:28N 48°39' W 123°27'0 0.0
2019-Sep-10 12:58N 48°39' W 123°27'0 0.0
2019-Sep-10 12:28N 48°39' W 123°27'0 0.0
2019-Sep-10 11:58N 48°39' W 123°27'0 0.0
2019-Sep-10 11:28N 48°39' W 123°27'0 0.0
2019-Sep-10 10:58N 48°39' W 123°27'0 0.0
2019-Sep-10 10:28N 48°39' W 123°27'0 0.0
2019-Sep-10 09:58N 48°39' W 123°27'0 0.0
2019-Sep-10 09:28N 48°39' W 123°27'0 0.0
2019-Sep-10 08:22N 48°39' W 123°27'0 0.0
2019-Sep-10 07:58N 48°39' W 123°27'0 0.0
2019-Sep-10 07:00N 48°39' W 123°27'0 0.0
2019-Sep-10 06:30N 48°39' W 123°27'0 0.0
2019-Sep-10 05:58N 48°39' W 123°27'0 0.0
2019-Sep-10 05:29N 48°39' W 123°27'0 0.0
2019-Sep-10 04:59N 48°39' W 123°27'0 0.0
2019-Sep-10 04:25N 48°39' W 123°27'0 0.0
2019-Sep-10 03:58N 48°39' W 123°27'0 0.0
2019-Sep-10 03:24N 48°39' W 123°27'0 0.0
2019-Sep-10 03:00N 48°39' W 123°27'0 0.0
2019-Sep-10 02:30N 48°39' W 123°27'0 0.0
2019-Sep-10 02:00N 48°39' W 123°27'0 0.0
2019-Sep-10 01:30N 48°39' W 123°27'0 0.0
2019-Sep-10 00:21N 48°39' W 123°27'0 0.0
2019-Sep-10 00:00N 48°39' W 123°27'0 0.0
2019-Sep-09 23:30N 48°39' W 123°27'0 0.0
2019-Sep-09 23:00N 48°39' W 123°27'0 0.0
2019-Sep-09 22:27N 48°39' W 123°27'0 0.0
2019-Sep-09 22:00N 48°39' W 123°27'0 0.0
2019-Sep-09 21:27N 48°39' W 123°27'0 0.0
2019-Sep-09 21:00N 48°39' W 123°27'0 0.0
2019-Sep-09 20:30N 48°39' W 123°27'0 0.0
2019-Sep-09 20:00N 48°39' W 123°27'0 0.0
2019-Sep-09 19:30N 48°39' W 123°27'0 0.0
2019-Sep-09 19:00N 48°39' W 123°27'0 0.0
2019-Sep-09 18:30N 48°39' W 123°27'0 0.0
2019-Sep-09 17:57N 48°39' W 123°27'0 0.0
2019-Sep-09 17:30N 48°39' W 123°27'0 0.0
2019-Sep-09 16:51N 48°39' W 123°27'0 0.0
2019-Sep-09 16:30N 48°39' W 123°27'0 0.0
2019-Sep-09 15:57N 48°39' W 123°27'0 0.0
2019-Sep-09 15:30N 48°39' W 123°27'0 0.0
2019-Sep-09 14:57N 48°39' W 123°27'0 0.8
2019-Sep-09 14:30N 48°39' W 123°28'2 3.5
2019-Sep-09 14:00N 48°40' W 123°30'0 0.1
2019-Sep-09 13:30N 48°40' W 123°30'1 2.9
2019-Sep-09 13:00N 48°41' W 123°30'2 4.6
2019-Sep-09 12:30N 48°43' W 123°27'3 5.8
2019-Sep-09 12:00N 48°44' W 123°24'3 5.7
2019-Sep-09 11:30N 48°45' W 123°19'3 6.1
2019-Sep-09 11:00N 48°44' W 123°15'4 8.5
2019-Sep-09 10:30N 48°44' W 123°09'5 9.3
2019-Sep-09 09:59N 48°47' W 123°02'3 6.7
2019-Sep-09 09:30N 48°50' W 123°03'4 8.6
2019-Sep-09 09:00N 48°53' W 123°08'4 8.4
2019-Sep-09 08:30N 48°56' W 123°12'4 8.6
2019-Sep-09 08:00N 48°59' W 123°17'4 8.3
2019-Sep-09 07:30N 49°01' W 123°22'3 5.0
2019-Sep-09 07:00N 49°02' W 123°26'0 0.1
2019-Sep-09 06:30N 49°02' W 123°26'0 0.2
2019-Sep-09 06:00N 49°02' W 123°26'2 4.0
2019-Sep-09 05:30N 49°03' W 123°24'2 3.3
2019-Sep-09 05:00N 49°03' W 123°22'0 0.2
2019-Sep-09 04:30N 49°03' W 123°22'3 6.9
2019-Sep-09 04:00N 49°06' W 123°25'4 8.6
2019-Sep-09 03:30N 49°10' W 123°26'2 3.6
2019-Sep-09 03:00N 49°12' W 123°26'0 0.5
2019-Sep-09 02:00N 49°12' W 123°27'4 8.3
2019-Sep-09 01:30N 49°13' W 123°33'4 8.4
2019-Sep-09 01:00N 49°14' W 123°40'4 7.1
2019-Sep-09 00:30N 49°15' W 123°45'0 0.2
2019-Sep-09 00:00N 49°15' W 123°45'0 0.0
2019-Sep-08 23:30N 49°15' W 123°45'0 0.0
2019-Sep-08 23:00N 49°15' W 123°45'4 7.0
2019-Sep-08 22:30N 49°19' W 123°45'5 8.9
2019-Sep-08 22:00N 49°23' W 123°45'1 2.1
2019-Sep-08 21:30N 49°24' W 123°45'2 3.6
2019-Sep-08 21:00N 49°24' W 123°48'4 8.3
2019-Sep-08 20:30N 49°23' W 123°55'4 8.5
2019-Sep-08 20:00N 49°22' W 124°01'3 5.4
2019-Sep-08 19:30N 49°22' W 124°05'0 0.0
2019-Sep-08 19:00N 49°22' W 124°05'4 7.7
2019-Sep-08 18:30N 49°23' W 124°11'4 8.4
2019-Sep-08 18:00N 49°25' W 124°17'4 8.7
2019-Sep-08 17:29N 49°27' W 124°23'5 8.6
2019-Sep-08 16:56N 49°28' W 124°30'0 0.1
2019-Sep-08 16:17N 49°28' W 124°30'1 3.5
2019-Sep-08 15:58N 49°29' W 124°29'13 8.9
2019-Sep-08 14:31N 49°29' W 124°09'010.0
2019-Sep-08 14:29N 49°29' W 124°09'0 0.3
2019-Sep-08 13:04N 49°29' W 124°09'1 9.7
2019-Sep-08 13:00N 49°29' W 124°09'2 2.8
2019-Sep-08 12:14N 49°30' W 124°06'0 0.2
2019-Sep-08 12:00N 49°30' W 124°06'13 4.5
2019-Sep-08 09:05N 49°41' W 124°18'4 8.0
2019-Sep-08 08:33N 49°44' W 124°22'4 8.3
2019-Sep-08 08:08N 49°45' W 124°27'1 7.7
2019-Sep-08 08:00N 49°46' W 124°28'4 7.8
2019-Sep-08 07:29N 49°48' W 124°34'3 6.1
2019-Sep-08 07:00N 49°49' W 124°38'4 7.6
2019-Sep-08 06:29N 49°45' W 124°40'1 2.9
2019-Sep-08 06:00N 49°43' W 124°41'0 0.1
2019-Sep-08 05:30N 49°44' W 124°41'0 0.1
2019-Sep-08 05:00N 49°44' W 124°41'2 3.9
2019-Sep-08 04:29N 49°42' W 124°43'0 0.0
2019-Sep-08 03:58N 49°42' W 124°43'2 4.5
2019-Sep-08 03:29N 49°44' W 124°46'4 8.3
2019-Sep-08 03:00N 49°47' W 124°49'3 6.9
2019-Sep-08 02:30N 49°50' W 124°52'0 0.0
2019-Sep-08 02:00N 49°50' W 124°52'1 2.4
2019-Sep-08 01:30N 49°51' W 124°53'1 2.7
2019-Sep-08 01:00N 49°52' W 124°55'1 1.2
2019-Sep-08 00:30N 49°52' W 124°55'0 0.3
2019-Sep-08 00:00N 49°52' W 124°55'1 1.0
2019-Sep-07 23:30N 49°52' W 124°56'2 4.4
2019-Sep-07 23:00N 49°53' W 124°60'0 0.0
2019-Sep-07 22:30N 49°53' W 124°60'0 0.8
2019-Sep-07 22:00N 49°53' W 124°59'4 7.6
2019-Sep-07 21:30N 49°56' W 125°04'1 2.9
2019-Sep-07 21:00N 49°57' W 125°06'2 4.4
2019-Sep-07 20:30N 49°58' W 125°09'2 4.6
2019-Sep-07 20:00N 49°59' W 125°12'612.9
2019-Sep-07 19:30N 50°04' W 125°16'612.1
2019-Sep-07 18:59N 50°10' W 125°22'88 7.5
2019-Sep-07 07:18N 50°49' W 127°25'4 9.2
2019-Sep-07 06:53N 50°51' W 127°30'3 8.5
2019-Sep-07 06:30N 50°53' W 127°34'5 9.3
2019-Sep-07 06:00N 50°55' W 127°41'5 9.5
2019-Sep-07 05:30N 50°58' W 127°46'3 6.2
2019-Sep-07 05:00N 51°00' W 127°50'1 1.7
2019-Sep-07 04:30N 51°01' W 127°50'4 8.4
2019-Sep-07 04:00N 51°05' W 127°52'4 8.3
2019-Sep-07 03:30N 51°09' W 127°54'4 8.6
2019-Sep-07 03:00N 51°13' W 127°54'  

Dump ship's entire track history